createdAt,value
2019-06-20T00:00:00.906Z,45.67
2019-06-20T00:01:01.220Z,45.87
2019-06-20T00:02:01.660Z,46.55
2019-06-20T00:03:02.080Z,45.67
2019-06-20T00:04:02.479Z,46.65
2019-06-20T00:05:02.917Z,45.87
2019-06-20T00:06:03.299Z,46.97
2019-06-20T00:07:03.808Z,46.57
2019-06-20T00:08:04.153Z,46.57
2019-06-20T00:09:04.560Z,46.77
2019-06-20T00:10:04.996Z,47.07
2019-06-20T00:11:05.373Z,47.17
2019-06-20T00:12:05.835Z,47.17
2019-06-20T00:13:06.274Z,47.37
2019-06-20T00:14:06.668Z,47.27
2019-06-20T00:15:07.186Z,47.07
2019-06-20T00:16:07.488Z,47.37
2019-06-20T00:17:07.924Z,47.69
2019-06-20T00:18:08.347Z,47.39
2019-06-20T00:19:08.745Z,47.79
2019-06-20T00:20:09.180Z,47.59
2019-06-20T00:21:09.584Z,47.79
2019-06-20T00:22:10.046Z,48.38
2019-06-20T00:23:10.452Z,47.79
2019-06-20T00:24:10.861Z,48.38
2019-06-20T00:25:11.274Z,48.26
2019-06-20T00:26:11.665Z,48.38
2019-06-20T00:27:12.125Z,48.08
2019-06-20T00:28:12.514Z,48.49
2019-06-20T00:29:12.932Z,48.28
2019-06-20T00:30:13.389Z,48.88
2019-06-20T00:31:13.813Z,50.87
2019-06-20T00:32:14.353Z,52.86
2019-06-20T00:33:14.624Z,50.20
2019-06-20T00:34:15.043Z,54.68
2019-06-20T00:35:15.481Z,54.98
2019-06-20T00:36:15.880Z,51.12
2019-06-20T00:37:16.319Z,57.23
2019-06-20T00:38:16.737Z,52.34
2019-06-20T00:39:17.117Z,55.56
2019-06-20T00:40:17.676Z,57.06
2019-06-20T00:41:17.971Z,56.59
2019-06-20T00:42:18.427Z,58.48
2019-06-20T00:43:18.835Z,59.81
2019-06-20T00:44:19.215Z,61.00
2019-06-20T00:45:19.648Z,59.94
2019-06-20T00:46:20.068Z,60.33
2019-06-20T00:47:20.512Z,61.54
2019-06-20T00:48:20.989Z,63.23
2019-06-20T00:49:21.293Z,62.96
2019-06-20T00:50:21.734Z,61.66
2019-06-20T00:51:22.184Z,60.93
2019-06-20T00:52:22.619Z,60.86
2019-06-20T00:53:23.038Z,62.56
2019-06-20T00:54:23.440Z,67.26
2019-06-20T00:55:23.866Z,67.36
2019-06-20T00:56:24.307Z,65.39
2019-06-20T00:57:24.739Z,65.22
2019-06-20T00:58:25.139Z,65.22
2019-06-20T00:59:25.544Z,64.95
2019-06-20T01:00:25.950Z,65.16
2019-06-20T01:01:26.366Z,65.45
2019-06-20T01:02:26.783Z,65.33
2019-06-20T01:03:27.230Z,65.45
2019-06-20T01:04:27.676Z,66.46
2019-06-20T01:05:28.104Z,64.36
2019-06-20T01:06:28.467Z,65.75
2019-06-20T01:07:28.885Z,68.86
2019-06-20T01:08:29.544Z,71.66
2019-06-20T01:09:29.728Z,70.96
2019-06-20T01:10:30.132Z,73.76
2019-06-20T01:11:30.566Z,73.76
2019-06-20T01:12:31.002Z,74.90
2019-06-20T01:13:33.750Z,75.20
2019-06-20T01:14:31.809Z,76.80
2019-06-20T01:15:32.260Z,73.10
2019-06-20T01:16:32.667Z,71.30
2019-06-20T01:17:33.066Z,69.79
2019-06-20T01:18:33.482Z,67.76
2019-06-20T01:19:33.913Z,68.52
2019-06-20T01:20:34.329Z,66.42
2019-06-20T01:21:34.900Z,65.09
2019-06-20T01:22:35.173Z,62.59
2019-06-20T01:23:35.595Z,61.76
2019-06-20T01:24:36.011Z,60.44
2019-06-20T01:25:36.431Z,58.14
2019-06-20T01:26:36.867Z,58.71
2019-06-20T01:27:37.286Z,58.51
2019-06-20T01:28:37.718Z,57.39
2019-06-20T01:29:38.160Z,56.48
2019-06-20T01:30:38.514Z,56.68
2019-06-20T01:31:38.958Z,55.58
2019-06-20T01:32:39.389Z,56.79
2019-06-20T01:33:39.793Z,56.68
2019-06-20T01:34:40.175Z,55.79
2019-06-20T01:35:40.599Z,56.88
2019-06-20T01:36:41.046Z,56.18
2019-06-20T01:37:41.532Z,56.88
2019-06-20T01:38:41.872Z,56.79
2019-06-20T01:39:42.273Z,56.88
2019-06-20T01:40:42.675Z,57.09
2019-06-20T01:41:43.120Z,57.31
2019-06-20T01:42:43.559Z,57.81
2019-06-20T01:43:50.424Z,57.31
2019-06-20T01:44:45.395Z,57.84
2019-06-20T01:45:44.832Z,58.24
2019-06-20T01:46:45.277Z,58.04
2019-06-20T01:47:45.659Z,58.64
2019-06-20T01:48:46.058Z,58.64
2019-06-20T01:49:46.477Z,59.86
2019-06-20T01:50:46.888Z,59.36
2019-06-20T01:51:47.331Z,59.97
2019-06-20T01:52:47.743Z,60.69
2019-06-20T01:53:48.178Z,61.59
2019-06-20T01:54:48.722Z,61.29
2019-06-20T01:55:49.035Z,61.40
2019-06-20T01:56:49.450Z,62.99
2019-06-20T01:57:49.883Z,63.22
2019-06-20T01:58:50.306Z,63.22
2019-06-20T01:59:50.739Z,63.22
2019-06-20T02:00:51.157Z,63.42
2019-06-20T02:01:51.589Z,63.56
2019-06-20T02:02:52.141Z,63.53
2019-06-20T02:03:52.480Z,63.65
2019-06-20T02:04:52.854Z,63.45
2019-06-20T02:05:53.262Z,64.25
2019-06-20T02:06:53.690Z,64.86
2019-06-20T02:07:54.099Z,64.95
2019-06-20T02:08:54.500Z,64.59
2019-06-20T02:09:54.950Z,64.89
2019-06-20T02:12:27.669Z,65.39
2019-06-20T02:13:11.010Z,65.09
2019-06-20T02:14:11.411Z,65.48
2019-06-20T02:15:11.842Z,66.28
2019-06-20T02:16:12.245Z,66.28
2019-06-20T02:17:12.652Z,66.72
2019-06-20T02:18:13.081Z,66.69
2019-06-20T02:19:13.514Z,66.92
2019-06-20T02:20:14.036Z,66.92
2019-06-20T02:21:14.329Z,66.92
2019-06-20T02:22:14.751Z,66.72
2019-06-20T02:23:15.188Z,66.92
2019-06-20T02:24:15.605Z,67.12
2019-06-20T02:25:16.042Z,67.12
2019-06-20T02:26:16.450Z,67.02
2019-06-20T02:27:16.856Z,67.42
2019-06-20T02:28:17.379Z,67.82
2019-06-20T02:29:17.694Z,67.96
2019-06-20T02:30:18.125Z,68.22
2019-06-20T02:31:18.594Z,67.85
2019-06-20T02:32:18.931Z,68.55
2019-06-20T02:33:19.397Z,68.55
2019-06-20T02:34:19.781Z,68.85
2019-06-20T02:35:20.208Z,68.76
2019-06-20T02:36:20.653Z,69.06
2019-06-20T02:37:21.069Z,68.85
2019-06-20T02:38:21.498Z,69.16
2019-06-20T02:39:21.884Z,69.35
2019-06-20T02:40:22.300Z,69.16
2019-06-20T02:41:22.716Z,69.96
2019-06-20T02:42:23.135Z,69.69
2019-06-20T02:43:23.586Z,69.69
2019-06-20T02:44:29.837Z,69.89
2019-06-20T02:45:25.541Z,69.99
2019-06-20T02:46:24.808Z,69.89
2019-06-20T02:47:25.225Z,70.50
2019-06-20T02:48:25.916Z,70.19
2019-06-20T02:49:26.060Z,70.29
2019-06-20T02:50:26.502Z,70.29
2019-06-20T02:51:26.878Z,70.69
2019-06-20T02:52:27.321Z,70.93
2019-06-20T02:53:27.902Z,71.09
2019-06-20T02:54:28.162Z,70.89
2019-06-20T02:55:28.599Z,71.33
2019-06-20T02:56:28.982Z,71.33
2019-06-20T02:57:29.422Z,71.30
2019-06-20T02:58:29.885Z,71.09
2019-06-20T02:59:30.283Z,71.20
2019-06-20T03:00:30.707Z,71.20
2019-06-20T03:01:31.141Z,71.20
2019-06-20T03:02:31.496Z,71.59
2019-06-20T03:03:31.967Z,71.23
2019-06-20T03:04:32.355Z,71.59
2019-06-20T03:05:32.793Z,71.39
2019-06-20T03:06:33.190Z,71.70
2019-06-20T03:07:33.604Z,71.43
2019-06-20T03:08:34.046Z,71.50
2019-06-20T03:09:34.463Z,72.40
2019-06-20T03:10:34.914Z,72.13
2019-06-20T03:11:35.313Z,72.24
2019-06-20T03:12:35.735Z,72.13
2019-06-20T03:13:36.188Z,71.83
2019-06-20T03:14:44.941Z,71.83
2019-06-20T03:15:38.011Z,71.73
2019-06-20T03:16:37.423Z,71.63
2019-06-20T03:17:37.872Z,71.73
2019-06-20T03:18:38.397Z,72.03
2019-06-20T03:19:38.667Z,72.53
2019-06-20T03:20:39.114Z,71.59
2019-06-20T03:21:39.514Z,72.20
2019-06-20T03:22:39.935Z,71.56
2019-06-20T03:23:40.388Z,71.77
2019-06-20T03:24:40.770Z,71.77
2019-06-20T03:25:41.174Z,71.50
2019-06-20T03:26:41.718Z,72.06
2019-06-20T03:27:42.060Z,71.86
2019-06-20T03:28:42.519Z,71.77
2019-06-20T03:29:42.901Z,71.16
2019-06-20T03:30:43.314Z,71.23
2019-06-20T03:31:43.748Z,71.56
2019-06-20T03:32:44.166Z,71.33
2019-06-20T03:33:44.617Z,71.12
2019-06-20T03:34:45.069Z,71.16
2019-06-20T03:35:45.380Z,71.06
2019-06-20T03:36:45.842Z,71.12
2019-06-20T03:37:48.132Z,71.86
2019-06-20T03:38:46.711Z,71.86
2019-06-20T03:39:47.095Z,71.66
2019-06-20T03:40:47.540Z,71.50
2019-06-20T03:41:47.953Z,72.90
2019-06-20T03:42:48.384Z,71.80
2019-06-20T03:43:48.784Z,72.60
2019-06-20T03:45:01.277Z,72.30
2019-06-20T03:45:50.652Z,73.30
2019-06-20T03:46:50.036Z,73.94
2019-06-20T03:47:50.424Z,73.30
2019-06-20T03:48:50.935Z,73.44
2019-06-20T03:49:51.283Z,72.70
2019-06-20T03:50:51.724Z,72.83
2019-06-20T03:51:52.241Z,73.70
2019-06-20T03:52:52.523Z,73.03
2019-06-20T03:53:52.974Z,74.14
2019-06-20T03:54:53.374Z,74.04
2019-06-20T03:55:53.795Z,73.20
2019-06-20T03:56:54.231Z,72.90
2019-06-20T03:57:54.632Z,72.80
2019-06-20T03:58:55.100Z,72.90
2019-06-20T03:59:55.598Z,72.60
2019-06-20T04:00:55.879Z,71.96
2019-06-20T04:01:56.331Z,71.96
2019-06-20T04:02:56.718Z,71.56
2019-06-20T04:03:57.177Z,71.12
2019-06-20T04:04:57.544Z,70.69
2019-06-20T04:05:57.997Z,70.89
2019-06-20T04:06:58.420Z,69.99
2019-06-20T04:07:58.925Z,69.16
2019-06-20T04:08:59.264Z,68.55
2019-06-20T04:09:59.634Z,68.46
2019-06-20T04:11:00.083Z,68.52
2019-06-20T04:12:00.492Z,68.23
2019-06-20T04:13:00.908Z,68.02
2019-06-20T04:14:01.366Z,68.23
2019-06-20T04:15:14.965Z,67.82
2019-06-20T04:16:03.190Z,67.93
2019-06-20T04:17:02.587Z,67.72
2019-06-20T04:18:02.994Z,68.23
2019-06-20T04:19:03.453Z,69.02
2019-06-20T04:20:03.857Z,68.69
2019-06-20T04:21:04.257Z,68.69
2019-06-20T04:22:04.665Z,68.49
2019-06-20T04:23:05.086Z,67.99
2019-06-20T04:24:05.588Z,67.49
2019-06-20T04:25:05.964Z,67.96
2019-06-20T04:26:06.618Z,67.69
2019-06-20T04:27:06.817Z,68.09
2019-06-20T04:28:07.201Z,67.76
2019-06-20T04:29:07.654Z,67.46
2019-06-20T04:30:08.213Z,67.56
2019-06-20T04:31:08.493Z,67.66
2019-06-20T04:32:08.980Z,67.36
2019-06-20T04:33:09.415Z,67.03
2019-06-20T04:34:09.852Z,66.73
2019-06-20T04:35:10.202Z,66.83
2019-06-20T04:36:10.606Z,66.83
2019-06-20T04:37:11.037Z,66.33
2019-06-20T04:38:11.439Z,66.73
2019-06-20T04:39:18.677Z,65.13
2019-06-20T04:40:13.290Z,65.40
2019-06-20T04:41:12.857Z,65.80
2019-06-20T04:42:13.159Z,65.33
2019-06-20T04:43:13.553Z,65.10
2019-06-20T04:44:14.020Z,65.70
2019-06-20T04:45:14.439Z,65.60
2019-06-20T04:46:14.847Z,65.60
2019-06-20T04:47:15.284Z,65.70
2019-06-20T04:48:15.682Z,65.70
2019-06-20T04:49:19.506Z,64.70
2019-06-20T04:50:16.522Z,65.17
2019-06-20T04:51:16.934Z,64.97
2019-06-20T04:52:17.365Z,64.87
2019-06-20T04:53:17.787Z,63.97
2019-06-20T04:54:18.210Z,63.97
2019-06-20T04:55:18.607Z,63.67
2019-06-20T04:56:19.029Z,64.17
2019-06-20T04:57:19.532Z,63.04
2019-06-20T04:58:19.862Z,63.24
2019-06-20T04:59:20.305Z,63.01
2019-06-20T05:00:20.720Z,63.01
2019-06-20T05:01:21.110Z,61.32
2019-06-20T05:02:21.631Z,61.69
2019-06-20T05:03:21.969Z,62.18
2019-06-20T05:04:22.408Z,61.19
2019-06-20T05:05:22.887Z,62.15
2019-06-20T05:06:23.260Z,62.45
2019-06-20T05:07:23.657Z,61.96
2019-06-20T05:08:24.064Z,62.35
2019-06-20T05:09:24.500Z,62.85
2019-06-20T05:10:24.914Z,62.95
2019-06-20T05:11:25.322Z,62.72
2019-06-20T05:12:25.769Z,62.82
2019-06-20T05:13:26.172Z,62.52
2019-06-20T05:14:26.738Z,61.03
2019-06-20T05:15:27.025Z,61.20
2019-06-20T05:16:27.424Z,60.70
2019-06-20T05:17:27.846Z,60.80
2019-06-20T05:18:28.260Z,59.88
2019-06-20T05:19:28.717Z,59.28
2019-06-20T05:20:29.124Z,59.55
2019-06-20T05:21:29.516Z,59.25
2019-06-20T05:22:30.069Z,58.33
2019-06-20T05:23:30.345Z,58.26
2019-06-20T05:24:30.789Z,57.93
2019-06-20T05:25:31.215Z,57.93
2019-06-20T05:26:31.616Z,56.94
2019-06-20T05:27:32.049Z,58.33
2019-06-20T05:28:32.434Z,57.83
2019-06-20T05:29:32.890Z,57.24
2019-06-20T05:30:33.607Z,58.10
2019-06-20T05:31:33.681Z,57.70
2019-06-20T05:32:34.120Z,56.91
2019-06-20T05:33:34.501Z,57.60
2019-06-20T05:34:34.961Z,56.88
2019-06-20T05:35:35.480Z,57.11
2019-06-20T05:36:35.791Z,56.49
2019-06-20T05:37:36.232Z,56.88
2019-06-20T05:38:36.762Z,57.68
2019-06-20T05:39:37.101Z,57.31
2019-06-20T05:40:37.538Z,57.11
2019-06-20T05:41:37.957Z,57.81
2019-06-20T05:42:38.368Z,57.81
2019-06-20T05:43:38.788Z,57.41
2019-06-20T05:44:39.223Z,57.18
2019-06-20T05:45:39.666Z,56.88
2019-06-20T05:46:40.084Z,57.38
2019-06-20T05:47:40.490Z,56.76
2019-06-20T05:48:40.896Z,56.56
2019-06-20T05:49:41.465Z,57.75
2019-06-20T05:50:41.755Z,56.95
2019-06-20T05:51:42.139Z,56.66
2019-06-20T05:52:42.578Z,56.56
2019-06-20T05:53:43.010Z,57.06
2019-06-20T05:54:43.434Z,56.06
2019-06-20T05:55:43.945Z,56.26
2019-06-20T05:56:44.697Z,56.56
2019-06-20T05:57:44.678Z,56.76
2019-06-20T05:58:45.982Z,56.76
2019-06-20T05:59:45.536Z,56.76
2019-06-20T06:00:45.957Z,57.08
2019-06-20T06:01:46.977Z,57.78
2019-06-20T06:02:46.749Z,57.08
2019-06-20T06:03:47.311Z,57.28
2019-06-20T06:04:47.626Z,57.87
2019-06-20T06:05:48.050Z,57.87
2019-06-20T06:06:48.441Z,57.87
2019-06-20T06:07:48.856Z,56.91
2019-06-20T06:08:49.308Z,56.98
2019-06-20T06:09:49.728Z,57.78
2019-06-20T06:10:50.149Z,56.29
2019-06-20T06:11:50.632Z,56.68
2019-06-20T06:12:50.941Z,56.91
2019-06-20T06:13:51.385Z,57.68
2019-06-20T06:14:51.806Z,58.00
2019-06-20T06:15:52.220Z,58.30
2019-06-20T06:16:52.627Z,57.51
2019-06-20T06:17:53.060Z,58.10
2019-06-20T06:18:53.465Z,59.30
2019-06-20T06:19:53.981Z,59.17
2019-06-20T06:20:54.313Z,59.79
2019-06-20T06:21:54.722Z,60.78
2019-06-20T06:22:55.140Z,61.01
2019-06-20T06:23:55.575Z,61.38
2019-06-20T06:24:55.980Z,61.41
2019-06-20T06:25:56.409Z,61.83
2019-06-20T06:26:59.558Z,62.73
2019-06-20T06:27:57.259Z,63.49
2019-06-20T06:28:57.697Z,63.39
2019-06-20T06:29:58.072Z,63.89
2019-06-20T06:30:58.520Z,66.41
2019-06-20T06:31:58.902Z,68.03
2019-06-20T06:32:59.329Z,69.23
2019-06-20T06:33:59.758Z,70.82
2019-06-20T06:35:00.170Z,72.55
2019-06-20T06:36:00.599Z,74.88
2019-06-20T06:37:01.084Z,77.74
2019-06-20T06:38:01.419Z,76.78
2019-06-20T06:39:01.877Z,78.12
2019-06-20T06:40:02.276Z,79.29
2019-06-20T06:41:02.677Z,81.63
2019-06-20T06:42:03.106Z,82.03
2019-06-20T06:43:03.509Z,83.37
2019-06-20T06:44:03.939Z,81.51
2019-06-20T06:45:04.467Z,82.01
2019-06-20T06:46:04.748Z,83.25
2019-06-20T06:47:05.178Z,83.45
2019-06-20T06:48:05.596Z,83.89
2019-06-20T06:49:06.026Z,84.35
2019-06-20T06:50:06.508Z,84.25
2019-06-20T06:51:06.855Z,83.45
2019-06-20T06:52:07.320Z,83.55
2019-06-20T06:53:07.767Z,83.45
2019-06-20T06:54:08.123Z,83.45
2019-06-20T06:55:08.546Z,82.24
2019-06-20T06:56:08.946Z,82.51
2019-06-20T06:57:09.380Z,81.41
2019-06-20T06:58:09.783Z,80.80
2019-06-20T06:59:10.245Z,81.11
2019-06-20T07:00:10.675Z,81.30
2019-06-20T07:01:11.095Z,81.67
2019-06-20T07:02:11.471Z,81.87
2019-06-20T07:03:11.859Z,81.37
2019-06-20T07:04:12.316Z,79.33
2019-06-20T07:05:12.769Z,79.33
2019-06-20T07:06:13.156Z,79.69
2019-06-20T07:07:13.595Z,79.69
2019-06-20T07:08:14.006Z,79.69
2019-06-20T07:09:14.441Z,79.49
2019-06-20T07:10:14.904Z,79.59
2019-06-20T07:11:15.248Z,79.46
2019-06-20T07:12:15.749Z,77.86
2019-06-20T07:13:16.086Z,76.86
2019-06-20T07:14:16.536Z,77.25
2019-06-20T07:15:16.923Z,75.85
2019-06-20T07:16:17.341Z,75.16
2019-06-20T07:17:17.804Z,76.49
2019-06-20T07:18:18.284Z,75.89
2019-06-20T07:19:18.594Z,75.59
2019-06-20T07:20:19.017Z,74.66
2019-06-20T07:21:19.424Z,74.69
2019-06-20T07:22:19.860Z,76.29
2019-06-20T07:23:20.260Z,75.79
2019-06-20T07:24:20.711Z,76.59
2019-06-20T07:25:21.127Z,76.15
2019-06-20T07:26:21.615Z,75.76
2019-06-20T07:27:21.939Z,75.22
2019-06-20T07:28:22.342Z,72.52
2019-06-20T07:29:22.778Z,73.42
2019-06-20T07:30:23.193Z,73.22
2019-06-20T07:31:23.565Z,73.12
2019-06-20T07:32:24.041Z,70.83
2019-06-20T07:33:24.432Z,71.42
2019-06-20T07:34:24.899Z,73.32
2019-06-20T07:35:25.271Z,73.42
2019-06-20T07:36:25.668Z,72.82
2019-06-20T07:37:26.114Z,71.29
2019-06-20T07:38:26.530Z,71.29
2019-06-20T07:39:26.984Z,70.79
2019-06-20T07:40:27.381Z,70.99
2019-06-20T07:41:27.780Z,70.86
2019-06-20T07:42:28.479Z,69.49
2019-06-20T07:43:28.604Z,69.59
2019-06-20T07:44:29.060Z,70.09
2019-06-20T07:45:29.485Z,70.12
2019-06-20T07:46:29.946Z,71.03
2019-06-20T07:47:30.332Z,71.62
2019-06-20T07:48:30.715Z,70.16
2019-06-20T07:49:31.149Z,72.16
2019-06-20T07:50:31.611Z,72.69
2019-06-20T07:51:32.103Z,71.49
2019-06-20T07:52:32.412Z,71.19
2019-06-20T07:53:32.799Z,71.92
2019-06-20T07:54:33.238Z,72.33
2019-06-20T07:55:33.701Z,72.33
2019-06-20T07:56:34.100Z,72.56
2019-06-20T07:57:34.544Z,73.06
2019-06-20T07:58:34.941Z,72.30
2019-06-20T07:59:35.444Z,73.76
2019-06-20T08:00:35.819Z,73.19
2019-06-20T08:01:36.213Z,73.50
2019-06-20T08:02:36.652Z,73.70
2019-06-20T08:03:37.049Z,74.30
2019-06-20T08:04:37.457Z,74.90
2019-06-20T08:05:37.956Z,75.37
2019-06-20T08:06:38.314Z,74.87
2019-06-20T08:07:38.854Z,74.87
2019-06-20T08:08:39.142Z,75.23
2019-06-20T08:09:44.773Z,75.19
2019-06-20T08:10:41.014Z,73.79
2019-06-20T08:11:40.412Z,71.59
2019-06-20T08:12:40.837Z,72.59
2019-06-20T08:13:41.240Z,71.99
2019-06-20T08:14:41.704Z,70.86
2019-06-20T08:15:42.128Z,70.26
2019-06-20T08:16:42.479Z,70.86
2019-06-20T08:17:43.045Z,71.06
2019-06-20T08:18:43.354Z,70.66
2019-06-20T08:19:43.757Z,69.86
2019-06-20T08:20:44.201Z,69.66
2019-06-20T08:21:44.590Z,69.56
2019-06-20T08:22:45.008Z,70.53
2019-06-20T08:23:45.456Z,69.93
2019-06-20T08:24:45.866Z,69.62
2019-06-20T08:25:46.299Z,70.59
2019-06-20T08:26:46.682Z,67.80
2019-06-20T08:27:47.102Z,67.49
2019-06-20T08:28:47.510Z,67.49
2019-06-20T08:29:47.956Z,68.06
2019-06-20T08:30:48.412Z,66.96
2019-06-20T08:31:48.877Z,66.93
2019-06-20T08:32:49.329Z,66.24
2019-06-20T08:33:49.643Z,66.63
2019-06-20T08:34:50.054Z,66.20
2019-06-20T08:35:50.508Z,65.20
2019-06-20T08:36:50.901Z,64.90
2019-06-20T08:37:51.328Z,63.78
2019-06-20T08:38:51.702Z,64.18
2019-06-20T08:39:52.145Z,63.58
2019-06-20T08:40:52.686Z,63.78
2019-06-20T08:41:52.972Z,63.65
2019-06-20T08:42:53.418Z,63.15
2019-06-20T08:43:53.889Z,63.29
2019-06-20T08:44:56.215Z,62.82
2019-06-20T08:45:55.121Z,61.03
2019-06-20T08:46:56.380Z,62.42
2019-06-20T08:47:56.560Z,63.12
2019-06-20T08:48:56.312Z,62.32
2019-06-20T08:49:56.502Z,61.83
2019-06-20T08:50:58.225Z,62.32
2019-06-20T08:51:57.354Z,61.93
2019-06-20T08:52:57.997Z,61.83
2019-06-20T08:53:59.200Z,61.36
2019-06-20T08:54:59.548Z,61.96
2019-06-20T08:55:59.381Z,62.85
2019-06-20T08:56:59.324Z,63.28
2019-06-20T08:58:01.309Z,62.68
2019-06-20T08:59:00.593Z,63.55
2019-06-20T09:00:00.684Z,62.55
2019-06-20T09:08:10.159Z,62.13
2019-06-20T09:09:04.450Z,61.93
2019-06-20T09:10:04.741Z,61.93
2019-06-20T09:11:05.465Z,61.30
2019-06-20T09:12:05.576Z,61.40
2019-06-20T09:13:06.016Z,61.77
2019-06-20T09:14:06.510Z,61.07
2019-06-20T09:15:06.854Z,61.77
2019-06-20T09:16:07.305Z,60.97
2019-06-20T09:17:07.688Z,61.47
2019-06-20T09:18:08.100Z,60.97
2019-06-20T09:19:08.552Z,61.17
2019-06-20T09:20:08.969Z,60.87
2019-06-20T09:21:09.449Z,60.77
2019-06-20T09:22:09.942Z,60.77
2019-06-20T09:23:10.188Z,61.47
2019-06-20T09:24:10.695Z,62.29
2019-06-20T09:25:11.048Z,61.90
2019-06-20T09:26:11.498Z,61.33
2019-06-20T09:27:11.885Z,61.63
2019-06-20T09:28:12.303Z,63.35
2019-06-20T09:29:12.724Z,62.95
2019-06-20T09:30:13.291Z,62.82
2019-06-20T09:31:13.585Z,62.62
2019-06-20T09:32:13.983Z,62.69
2019-06-20T09:33:14.394Z,62.49
2019-06-20T09:34:14.819Z,62.26
2019-06-20T09:35:15.222Z,61.74
2019-06-20T09:36:15.722Z,61.14
2019-06-20T09:37:16.085Z,60.84
2019-06-20T09:38:16.540Z,60.61
2019-06-20T09:39:16.922Z,59.62
2019-06-20T09:40:17.310Z,60.22
2019-06-20T09:41:17.797Z,59.99
2019-06-20T09:42:18.170Z,59.09
2019-06-20T09:43:27.172Z,59.49
2019-06-20T09:44:20.025Z,59.09
2019-06-20T09:45:19.427Z,59.59
2019-06-20T09:46:19.959Z,59.30
2019-06-20T09:47:20.243Z,59.59
2019-06-20T09:48:20.670Z,59.49
2019-06-20T09:49:21.109Z,59.30
2019-06-20T09:50:21.517Z,59.36
2019-06-20T09:51:21.976Z,59.27
2019-06-20T09:52:22.345Z,58.97
2019-06-20T09:53:22.773Z,58.04
2019-06-20T09:54:23.281Z,58.25
2019-06-20T09:55:23.672Z,57.72
2019-06-20T09:56:24.064Z,58.42
2019-06-20T09:57:24.445Z,57.00
2019-06-20T09:58:24.873Z,57.29
2019-06-20T09:59:27.788Z,57.50
2019-06-20T10:00:25.733Z,56.68
2019-06-20T10:01:26.175Z,55.29
2019-06-20T10:02:26.547Z,56.48
2019-06-20T10:03:27.104Z,56.08
2019-06-20T10:04:27.423Z,56.45
2019-06-20T10:05:27.826Z,55.63
2019-06-20T10:06:28.282Z,55.63
2019-06-20T10:07:28.644Z,54.94
2019-06-20T10:08:29.083Z,55.60
2019-06-20T10:09:29.531Z,54.02
2019-06-20T10:10:29.938Z,54.32
2019-06-20T10:11:30.509Z,54.12
2019-06-20T10:12:30.758Z,54.32
2019-06-20T10:13:32.566Z,54.02
2019-06-20T10:14:31.628Z,53.13
2019-06-20T10:15:32.028Z,52.73
2019-06-20T10:16:45.020Z,52.93
2019-06-20T10:17:33.885Z,53.03
2019-06-20T10:18:33.288Z,52.83
2019-06-20T10:19:33.802Z,53.23
2019-06-20T10:20:34.141Z,53.63
2019-06-20T10:21:34.591Z,53.11
2019-06-20T10:22:35.008Z,54.22
2019-06-20T10:23:35.422Z,54.42
2019-06-20T10:24:35.841Z,54.59
2019-06-20T10:25:36.260Z,54.19
2019-06-20T10:26:37.628Z,54.10
2019-06-20T10:27:37.192Z,55.08
2019-06-20T10:28:37.513Z,54.39
2019-06-20T10:29:37.954Z,55.68
2019-06-20T10:30:38.349Z,54.71
2019-06-20T10:31:38.795Z,55.21
2019-06-20T10:32:39.214Z,55.33
2019-06-20T10:33:39.621Z,55.66
2019-06-20T10:34:40.060Z,55.19
2019-06-20T10:35:40.486Z,56.21
2019-06-20T10:36:40.976Z,57.45
2019-06-20T10:37:41.313Z,57.53
2019-06-20T10:38:41.715Z,58.12
2019-06-20T10:39:44.495Z,57.82
2019-06-20T10:40:44.733Z,55.94
2019-06-20T10:41:43.574Z,56.85
2019-06-20T10:42:44.556Z,56.95
2019-06-20T10:43:44.264Z,56.66
2019-06-20T10:44:45.703Z,57.06
2019-06-20T10:45:45.718Z,57.98
2019-06-20T10:46:45.863Z,57.78
2019-06-20T10:47:46.886Z,57.28
2019-06-20T10:48:45.999Z,56.76
2019-06-20T10:49:47.711Z,57.82
2019-06-20T10:50:47.721Z,57.13
2019-06-20T10:51:47.639Z,56.53
2019-06-20T10:52:48.043Z,57.40
2019-06-20T10:53:49.187Z,56.40
2019-06-20T10:54:49.286Z,56.70
2019-06-20T10:55:49.047Z,57.32
2019-06-20T10:56:49.326Z,57.42
2019-06-20T10:57:50.015Z,58.09
2019-06-20T10:58:50.690Z,57.57
2019-06-20T10:59:50.895Z,57.37
2019-06-20T11:00:51.301Z,56.74
2019-06-20T11:01:51.415Z,56.65
2019-06-20T11:02:51.839Z,56.23
2019-06-20T11:03:52.228Z,56.10
2019-06-20T11:04:52.679Z,55.01
2019-06-20T11:05:53.078Z,54.52
2019-06-20T11:06:53.542Z,55.18
2019-06-20T11:07:53.943Z,55.28
2019-06-20T11:08:54.378Z,54.96
2019-06-20T11:09:54.741Z,54.17
2019-06-20T11:10:55.163Z,53.77
2019-06-20T11:11:55.595Z,55.08
2019-06-20T11:12:56.435Z,55.08
2019-06-20T11:13:56.420Z,55.70
2019-06-20T11:14:56.857Z,55.63
2019-06-20T11:15:57.238Z,56.65
2019-06-20T11:16:57.753Z,56.77
2019-06-20T11:17:58.175Z,56.57
2019-06-20T11:18:58.523Z,56.97
2019-06-20T11:19:58.951Z,57.04
2019-06-20T11:20:59.338Z,56.25
2019-06-20T11:21:59.811Z,55.96
2019-06-20T11:23:00.239Z,54.96
2019-06-20T11:24:00.630Z,55.49
2019-06-20T11:25:01.059Z,55.78
2019-06-20T11:26:01.593Z,55.46
2019-06-20T11:27:01.928Z,56.25
2019-06-20T11:28:02.349Z,56.23
2019-06-20T11:29:02.775Z,55.24
2019-06-20T11:30:03.226Z,54.94
2019-06-20T11:31:03.603Z,55.83
2019-06-20T11:32:04.008Z,55.80
2019-06-20T11:33:04.436Z,55.01
2019-06-20T11:34:04.980Z,54.12
2019-06-20T11:35:05.285Z,54.12
2019-06-20T11:36:05.709Z,54.42
2019-06-20T11:37:06.153Z,54.12
2019-06-20T11:38:06.576Z,54.36
2019-06-20T11:39:06.975Z,54.36
2019-06-20T11:40:07.398Z,53.87
2019-06-20T11:41:07.875Z,53.77
2019-06-20T11:42:08.336Z,52.95
2019-06-20T11:43:08.660Z,53.75
2019-06-20T11:44:09.077Z,53.25
2019-06-20T11:45:09.512Z,52.86
2019-06-20T11:46:09.930Z,52.56
2019-06-20T11:47:10.351Z,52.17
2019-06-20T11:48:10.771Z,52.14
2019-06-20T11:49:11.155Z,52.36
2019-06-20T11:50:11.630Z,52.04
2019-06-20T11:51:12.009Z,50.19
2019-06-20T11:52:12.438Z,51.28
2019-06-20T11:53:12.857Z,50.71
2019-06-20T11:54:13.248Z,50.48
2019-06-20T11:55:13.658Z,51.07
2019-06-20T11:56:14.110Z,50.48
2019-06-20T11:57:14.537Z,50.68
2019-06-20T11:58:15.007Z,49.52
2019-06-20T11:59:15.401Z,50.73
2019-06-20T12:00:15.773Z,51.45
2019-06-20T12:01:16.214Z,52.14
2019-06-20T12:02:16.637Z,52.24
2019-06-20T12:03:17.079Z,52.83
2019-06-20T12:04:17.444Z,52.04
2019-06-20T12:05:17.877Z,51.54
2019-06-20T12:06:18.327Z,51.62
2019-06-20T12:07:18.852Z,50.93
2019-06-20T12:08:19.161Z,49.94
2019-06-20T12:09:19.556Z,51.00
2019-06-20T12:10:19.993Z,51.18
2019-06-20T12:11:20.396Z,50.38
2019-06-20T12:12:20.860Z,49.67
2019-06-20T12:13:21.257Z,49.89
2019-06-20T12:14:21.691Z,50.16
2019-06-20T12:15:22.212Z,48.98
2019-06-20T12:16:22.490Z,49.96
2019-06-20T12:17:22.928Z,49.25
2019-06-20T12:18:23.393Z,48.27
2019-06-20T12:19:23.747Z,48.07
2019-06-20T12:20:24.162Z,47.38
2019-06-20T12:21:24.604Z,47.57
2019-06-20T12:22:25.003Z,47.87
2019-06-20T12:23:25.542Z,47.67
2019-06-20T12:24:25.835Z,47.35
2019-06-20T12:25:26.255Z,48.22
2019-06-20T12:26:26.690Z,48.51
2019-06-20T12:27:27.093Z,47.01
2019-06-20T12:28:27.512Z,47.70
2019-06-20T12:29:28.012Z,47.41
2019-06-20T12:30:28.382Z,45.26
2019-06-20T12:31:28.855Z,44.29
2019-06-20T12:32:29.219Z,46.00
2019-06-20T12:33:29.614Z,45.03
2019-06-20T12:34:30.064Z,45.72
2019-06-20T12:35:30.498Z,46.81
2019-06-20T12:36:30.935Z,46.51
2019-06-20T12:37:31.358Z,46.41
2019-06-20T12:38:31.762Z,45.94
2019-06-20T12:39:32.476Z,45.74
2019-06-20T12:40:32.573Z,46.04
2019-06-20T12:41:33.042Z,46.31
2019-06-20T12:42:33.482Z,46.70
2019-06-20T12:43:33.869Z,45.54
2019-06-20T12:44:34.303Z,46.63
2019-06-20T12:45:34.686Z,46.63
2019-06-20T12:46:35.129Z,47.40
2019-06-20T12:47:35.589Z,47.08
2019-06-20T12:48:36.059Z,46.59
2019-06-20T12:49:37.285Z,46.17
2019-06-20T12:50:36.775Z,45.65
2019-06-20T12:51:37.318Z,45.65
2019-06-20T12:52:38.913Z,44.06
2019-06-20T12:53:38.821Z,43.88
2019-06-20T12:54:39.560Z,44.20
2019-06-20T12:55:40.262Z,45.20
2019-06-20T12:56:40.259Z,45.50
2019-06-20T12:57:40.343Z,45.42
2019-06-20T12:58:40.774Z,45.62
2019-06-20T12:59:41.004Z,45.15
2019-06-20T13:00:41.705Z,45.05
2019-06-20T13:01:44.168Z,46.23
2019-06-20T13:02:42.490Z,45.25
2019-06-20T13:03:42.801Z,46.45
2019-06-20T13:04:43.900Z,47.25
2019-06-20T13:05:43.346Z,47.74